Terminal Aerodrome Forecast
Issued by NWS

Home | Current Version | Previous Version | Text Only | Print | Product List | Glossary Off
Versions: 1 2 3 4 5 6 7 8 9 10 11 12 13 14 15 16 17

000
FTUS43 KMPX 251430 AAB
TAFAXN
TAF AMD
KAXN 251430Z 2515/2612 01012KT 5SM BR OVC002
     FM251515 01012KT 6SM BR OVC004
     FM251700 36011KT P6SM BKN008 OVC015
     FM252000 36012KT P6SM VCSH OVC020
     FM260000 36014G23KT 3SM -RA BR OVC008=

USA.gov is the U.S. government's official web portal to all federal, state and local government web resources and services.